sensor_id;sensor_type;location;lat;lon;timestamp;P1;durP1;ratioP1;P2;durP2;ratioP2
10246;SDS011;5168;47.854;7.944;2024-02-21T00:01:46;3.87;;;3.00;;
10246;SDS011;5168;47.854;7.944;2024-02-21T00:04:12;3.07;;;2.67;;
10246;SDS011;5168;47.854;7.944;2024-02-21T00:06:38;3.50;;;2.30;;
10246;SDS011;5168;47.854;7.944;2024-02-21T00:09:04;3.93;;;2.87;;
10246;SDS011;5168;47.854;7.944;2024-02-21T00:11:29;4.00;;;3.00;;
10246;SDS011;5168;47.854;7.944;2024-02-21T00:13:55;5.70;;;2.90;;
10246;SDS011;5168;47.854;7.944;2024-02-21T00:16:21;4.87;;;3.00;;
10246;SDS011;5168;47.854;7.944;2024-02-21T00:18:47;3.73;;;2.60;;
10246;SDS011;5168;47.854;7.944;2024-02-21T00:21:13;4.90;;;2.80;;
10246;SDS011;5168;47.854;7.944;2024-02-21T00:23:43;6.80;;;3.10;;
10246;SDS011;5168;47.854;7.944;2024-02-21T00:26:11;5.53;;;2.50;;
10246;SDS011;5168;47.854;7.944;2024-02-21T00:28:37;3.40;;;2.90;;
10246;SDS011;5168;47.854;7.944;2024-02-21T00:31:03;4.07;;;2.60;;
10246;SDS011;5168;47.854;7.944;2024-02-21T00:33:30;8.13;;;3.20;;
10246;SDS011;5168;47.854;7.944;2024-02-21T00:35:56;6.43;;;3.27;;
10246;SDS011;5168;47.854;7.944;2024-02-21T00:38:21;2.83;;;2.50;;
10246;SDS011;5168;47.854;7.944;2024-02-21T00:40:47;4.57;;;2.80;;
10246;SDS011;5168;47.854;7.944;2024-02-21T00:43:12;4.13;;;2.60;;
10246;SDS011;5168;47.854;7.944;2024-02-21T00:45:38;3.00;;;2.63;;
10246;SDS011;5168;47.854;7.944;2024-02-21T00:48:04;4.10;;;2.70;;
10246;SDS011;5168;47.854;7.944;2024-02-21T00:50:30;6.27;;;3.10;;
10246;SDS011;5168;47.854;7.944;2024-02-21T00:52:56;6.13;;;2.80;;
10246;SDS011;5168;47.854;7.944;2024-02-21T00:55:22;6.17;;;2.90;;
10246;SDS011;5168;47.854;7.944;2024-02-21T00:57:48;7.47;;;2.97;;
10246;SDS011;5168;47.854;7.944;2024-02-21T01:00:14;2.60;;;2.40;;
10246;SDS011;5168;47.854;7.944;2024-02-21T01:02:40;2.87;;;2.57;;
10246;SDS011;5168;47.854;7.944;2024-02-21T01:05:06;5.23;;;2.97;;
10246;SDS011;5168;47.854;7.944;2024-02-21T01:07:32;6.60;;;3.00;;
10246;SDS011;5168;47.854;7.944;2024-02-21T01:09:57;3.40;;;2.87;;
10246;SDS011;5168;47.854;7.944;2024-02-21T01:12:23;7.27;;;3.20;;
10246;SDS011;5168;47.854;7.944;2024-02-21T01:14:49;6.87;;;3.03;;
10246;SDS011;5168;47.854;7.944;2024-02-21T01:17:15;4.17;;;2.93;;
10246;SDS011;5168;47.854;7.944;2024-02-21T01:19:40;3.87;;;2.77;;
10246;SDS011;5168;47.854;7.944;2024-02-21T01:22:06;3.13;;;2.93;;
10246;SDS011;5168;47.854;7.944;2024-02-21T01:24:31;6.10;;;2.77;;
10246;SDS011;5168;47.854;7.944;2024-02-21T01:26:57;5.13;;;2.87;;
10246;SDS011;5168;47.854;7.944;2024-02-21T01:29:22;3.37;;;2.87;;
10246;SDS011;5168;47.854;7.944;2024-02-21T01:31:48;3.67;;;2.60;;
10246;SDS011;5168;47.854;7.944;2024-02-21T01:34:14;5.83;;;2.73;;
10246;SDS011;5168;47.854;7.944;2024-02-21T01:36:40;3.10;;;2.70;;
10246;SDS011;5168;47.854;7.944;2024-02-21T01:39:07;4.03;;;2.80;;
10246;SDS011;5168;47.854;7.944;2024-02-21T01:41:32;9.80;;;3.93;;
10246;SDS011;5168;47.854;7.944;2024-02-21T01:43:58;5.60;;;3.30;;
10246;SDS011;5168;47.854;7.944;2024-02-21T01:46:24;4.80;;;2.80;;
10246;SDS011;5168;47.854;7.944;2024-02-21T01:48:54;4.00;;;2.97;;
10246;SDS011;5168;47.854;7.944;2024-02-21T01:51:20;4.13;;;2.70;;
10246;SDS011;5168;47.854;7.944;2024-02-21T01:53:46;4.97;;;2.73;;
10246;SDS011;5168;47.854;7.944;2024-02-21T01:56:12;7.20;;;3.37;;
10246;SDS011;5168;47.854;7.944;2024-02-21T01:58:39;5.50;;;3.50;;
10246;SDS011;5168;47.854;7.944;2024-02-21T02:01:07;5.70;;;3.57;;
10246;SDS011;5168;47.854;7.944;2024-02-21T02:03:33;4.13;;;3.47;;
10246;SDS011;5168;47.854;7.944;2024-02-21T02:05:59;6.50;;;3.17;;
10246;SDS011;5168;47.854;7.944;2024-02-21T02:08:25;4.97;;;3.00;;
10246;SDS011;5168;47.854;7.944;2024-02-21T02:10:51;6.67;;;2.70;;
10246;SDS011;5168;47.854;7.944;2024-02-21T02:13:17;4.10;;;2.90;;
10246;SDS011;5168;47.854;7.944;2024-02-21T02:18:09;3.20;;;2.90;;
10246;SDS011;5168;47.854;7.944;2024-02-21T02:20:36;3.43;;;2.87;;
10246;SDS011;5168;47.854;7.944;2024-02-21T02:23:09;10.43;;;3.60;;
10246;SDS011;5168;47.854;7.944;2024-02-21T02:25:36;5.20;;;2.80;;
10246;SDS011;5168;47.854;7.944;2024-02-21T02:28:06;5.33;;;3.00;;
10246;SDS011;5168;47.854;7.944;2024-02-21T02:30:32;5.63;;;3.33;;
10246;SDS011;5168;47.854;7.944;2024-02-21T02:33:02;5.83;;;3.40;;
10246;SDS011;5168;47.854;7.944;2024-02-21T02:35:32;5.00;;;3.20;;
10246;SDS011;5168;47.854;7.944;2024-02-21T02:38:00;4.77;;;3.07;;
10246;SDS011;5168;47.854;7.944;2024-02-21T02:40:26;5.90;;;3.57;;
10246;SDS011;5168;47.854;7.944;2024-02-21T02:42:51;10.13;;;3.23;;
10246;SDS011;5168;47.854;7.944;2024-02-21T02:45:19;3.70;;;3.03;;
10246;SDS011;5168;47.854;7.944;2024-02-21T02:47:46;7.27;;;2.90;;
10246;SDS011;5168;47.854;7.944;2024-02-21T02:50:11;8.13;;;3.33;;
10246;SDS011;5168;47.854;7.944;2024-02-21T02:52:37;8.07;;;3.70;;
10246;SDS011;5168;47.854;7.944;2024-02-21T02:55:04;7.17;;;3.00;;
10246;SDS011;5168;47.854;7.944;2024-02-21T02:57:30;8.93;;;3.43;;
10246;SDS011;5168;47.854;7.944;2024-02-21T02:59:56;8.03;;;3.50;;
10246;SDS011;5168;47.854;7.944;2024-02-21T03:02:21;10.33;;;3.80;;
10246;SDS011;5168;47.854;7.944;2024-02-21T03:04:47;3.70;;;3.30;;
10246;SDS011;5168;47.854;7.944;2024-02-21T03:07:13;6.10;;;3.40;;
10246;SDS011;5168;47.854;7.944;2024-02-21T03:09:39;4.77;;;2.93;;
10246;SDS011;5168;47.854;7.944;2024-02-21T03:12:05;5.97;;;3.27;;
10246;SDS011;5168;47.854;7.944;2024-02-21T03:14:31;7.87;;;3.43;;
10246;SDS011;5168;47.854;7.944;2024-02-21T03:16:57;7.03;;;3.87;;
10246;SDS011;5168;47.854;7.944;2024-02-21T03:19:23;3.40;;;2.90;;
10246;SDS011;5168;47.854;7.944;2024-02-21T03:21:49;3.83;;;3.07;;
10246;SDS011;5168;47.854;7.944;2024-02-21T03:24:21;6.37;;;2.87;;
10246;SDS011;5168;47.854;7.944;2024-02-21T03:26:47;8.20;;;3.53;;
10246;SDS011;5168;47.854;7.944;2024-02-21T03:29:14;8.83;;;3.27;;
10246;SDS011;5168;47.854;7.944;2024-02-21T03:31:41;7.27;;;3.10;;
10246;SDS011;5168;47.854;7.944;2024-02-21T03:34:07;4.47;;;2.90;;
10246;SDS011;5168;47.854;7.944;2024-02-21T03:36:32;4.47;;;2.90;;
10246;SDS011;5168;47.854;7.944;2024-02-21T03:38:58;3.67;;;2.73;;
10246;SDS011;5168;47.854;7.944;2024-02-21T03:41:24;9.43;;;3.23;;
10246;SDS011;5168;47.854;7.944;2024-02-21T03:43:50;4.13;;;3.17;;
10246;SDS011;5168;47.854;7.944;2024-02-21T03:46:16;4.70;;;2.93;;
10246;SDS011;5168;47.854;7.944;2024-02-21T03:48:41;8.03;;;2.80;;
10246;SDS011;5168;47.854;7.944;2024-02-21T03:51:07;6.63;;;3.13;;
10246;SDS011;5168;47.854;7.944;2024-02-21T03:53:33;5.17;;;2.90;;
10246;SDS011;5168;47.854;7.944;2024-02-21T03:56:02;4.03;;;3.00;;
10246;SDS011;5168;47.854;7.944;2024-02-21T03:58:29;6.07;;;2.67;;
10246;SDS011;5168;47.854;7.944;2024-02-21T04:00:59;2.90;;;2.70;;
10246;SDS011;5168;47.854;7.944;2024-02-21T04:03:26;5.13;;;3.07;;
10246;SDS011;5168;47.854;7.944;2024-02-21T04:05:52;2.80;;;2.40;;
10246;SDS011;5168;47.854;7.944;2024-02-21T04:08:18;4.43;;;2.53;;
10246;SDS011;5168;47.854;7.944;2024-02-21T04:10:43;2.40;;;2.20;;
10246;SDS011;5168;47.854;7.944;2024-02-21T04:13:09;4.80;;;2.80;;
10246;SDS011;5168;47.854;7.944;2024-02-21T04:15:35;4.87;;;3.00;;
10246;SDS011;5168;47.854;7.944;2024-02-21T04:18:01;5.67;;;3.00;;
10246;SDS011;5168;47.854;7.944;2024-02-21T04:20:28;5.03;;;2.93;;
10246;SDS011;5168;47.854;7.944;2024-02-21T04:22:54;5.27;;;3.30;;
10246;SDS011;5168;47.854;7.944;2024-02-21T04:25:20;5.10;;;3.17;;
10246;SDS011;5168;47.854;7.944;2024-02-21T04:27:46;6.10;;;3.17;;
10246;SDS011;5168;47.854;7.944;2024-02-21T04:30:11;3.03;;;2.70;;
10246;SDS011;5168;47.854;7.944;2024-02-21T04:32:38;4.33;;;2.90;;
10246;SDS011;5168;47.854;7.944;2024-02-21T04:35:04;2.80;;;2.60;;
10246;SDS011;5168;47.854;7.944;2024-02-21T04:37:30;4.97;;;2.80;;
10246;SDS011;5168;47.854;7.944;2024-02-21T04:39:56;2.97;;;2.73;;
10246;SDS011;5168;47.854;7.944;2024-02-21T04:42:22;4.90;;;2.90;;
10246;SDS011;5168;47.854;7.944;2024-02-21T04:44:48;6.50;;;3.20;;
10246;SDS011;5168;47.854;7.944;2024-02-21T04:47:14;7.63;;;3.20;;
10246;SDS011;5168;47.854;7.944;2024-02-21T04:49:39;6.53;;;3.10;;
10246;SDS011;5168;47.854;7.944;2024-02-21T04:52:05;8.00;;;3.23;;
10246;SDS011;5168;47.854;7.944;2024-02-21T04:54:30;7.60;;;3.07;;
10246;SDS011;5168;47.854;7.944;2024-02-21T04:56:56;7.40;;;3.17;;
10246;SDS011;5168;47.854;7.944;2024-02-21T04:59:22;6.47;;;3.00;;
10246;SDS011;5168;47.854;7.944;2024-02-21T05:01:48;5.97;;;2.67;;
10246;SDS011;5168;47.854;7.944;2024-02-21T05:04:13;5.43;;;3.10;;
10246;SDS011;5168;47.854;7.944;2024-02-21T05:06:39;5.80;;;2.90;;
10246;SDS011;5168;47.854;7.944;2024-02-21T05:09:08;5.40;;;3.10;;
10246;SDS011;5168;47.854;7.944;2024-02-21T05:11:37;5.33;;;3.40;;
10246;SDS011;5168;47.854;7.944;2024-02-21T05:14:03;5.70;;;3.10;;
10246;SDS011;5168;47.854;7.944;2024-02-21T05:16:29;9.23;;;2.73;;
10246;SDS011;5168;47.854;7.944;2024-02-21T05:18:56;5.50;;;3.10;;
10246;SDS011;5168;47.854;7.944;2024-02-21T05:21:25;4.77;;;2.73;;
10246;SDS011;5168;47.854;7.944;2024-02-21T05:23:51;6.47;;;2.93;;
10246;SDS011;5168;47.854;7.944;2024-02-21T05:26:20;7.03;;;3.10;;
10246;SDS011;5168;47.854;7.944;2024-02-21T05:28:47;6.93;;;2.93;;
10246;SDS011;5168;47.854;7.944;2024-02-21T05:31:13;4.53;;;2.60;;
10246;SDS011;5168;47.854;7.944;2024-02-21T05:33:39;6.40;;;3.03;;
10246;SDS011;5168;47.854;7.944;2024-02-21T05:36:05;4.87;;;2.70;;
10246;SDS011;5168;47.854;7.944;2024-02-21T05:38:30;4.53;;;2.67;;
10246;SDS011;5168;47.854;7.944;2024-02-21T05:40:56;4.77;;;3.20;;
10246;SDS011;5168;47.854;7.944;2024-02-21T05:43:22;2.60;;;2.40;;
10246;SDS011;5168;47.854;7.944;2024-02-21T05:45:49;2.63;;;2.43;;
10246;SDS011;5168;47.854;7.944;2024-02-21T05:48:14;3.77;;;2.47;;
10246;SDS011;5168;47.854;7.944;2024-02-21T05:50:40;8.53;;;3.10;;
10246;SDS011;5168;47.854;7.944;2024-02-21T05:53:06;5.57;;;2.70;;
10246;SDS011;5168;47.854;7.944;2024-02-21T05:55:31;4.20;;;2.63;;
10246;SDS011;5168;47.854;7.944;2024-02-21T05:57:57;4.97;;;2.53;;
10246;SDS011;5168;47.854;7.944;2024-02-21T06:00:23;6.07;;;2.93;;
10246;SDS011;5168;47.854;7.944;2024-02-21T06:02:48;6.17;;;2.97;;
10246;SDS011;5168;47.854;7.944;2024-02-21T06:05:14;7.90;;;3.13;;
10246;SDS011;5168;47.854;7.944;2024-02-21T06:07:40;3.70;;;2.70;;
10246;SDS011;5168;47.854;7.944;2024-02-21T06:10:07;6.17;;;2.90;;
10246;SDS011;5168;47.854;7.944;2024-02-21T06:12:33;3.53;;;2.53;;
10246;SDS011;5168;47.854;7.944;2024-02-21T06:14:58;3.83;;;2.67;;
10246;SDS011;5168;47.854;7.944;2024-02-21T06:17:24;5.97;;;2.63;;
10246;SDS011;5168;47.854;7.944;2024-02-21T06:19:50;4.87;;;2.90;;
10246;SDS011;5168;47.854;7.944;2024-02-21T06:22:16;3.70;;;2.63;;
10246;SDS011;5168;47.854;7.944;2024-02-21T06:24:42;4.70;;;2.73;;
10246;SDS011;5168;47.854;7.944;2024-02-21T06:27:08;4.50;;;2.40;;
10246;SDS011;5168;47.854;7.944;2024-02-21T06:29:36;6.00;;;2.83;;
10246;SDS011;5168;47.854;7.944;2024-02-21T06:32:02;3.97;;;2.67;;
10246;SDS011;5168;47.854;7.944;2024-02-21T06:34:27;3.47;;;2.67;;
10246;SDS011;5168;47.854;7.944;2024-02-21T06:36:53;5.90;;;2.30;;
10246;SDS011;5168;47.854;7.944;2024-02-21T06:39:18;4.37;;;2.60;;
10246;SDS011;5168;47.854;7.944;2024-02-21T06:41:44;5.50;;;2.57;;
10246;SDS011;5168;47.854;7.944;2024-02-21T06:44:10;4.57;;;2.80;;
10246;SDS011;5168;47.854;7.944;2024-02-21T06:46:35;2.87;;;2.57;;
10246;SDS011;5168;47.854;7.944;2024-02-21T06:49:01;4.10;;;2.83;;
10246;SDS011;5168;47.854;7.944;2024-02-21T06:51:30;4.50;;;2.40;;
10246;SDS011;5168;47.854;7.944;2024-02-21T06:53:56;2.90;;;2.70;;
10246;SDS011;5168;47.854;7.944;2024-02-21T06:56:23;3.10;;;2.80;;
10246;SDS011;5168;47.854;7.944;2024-02-21T06:58:54;3.43;;;2.57;;
10246;SDS011;5168;47.854;7.944;2024-02-21T07:01:19;5.87;;;2.80;;
10246;SDS011;5168;47.854;7.944;2024-02-21T07:03:45;4.70;;;2.70;;
10246;SDS011;5168;47.854;7.944;2024-02-21T07:06:11;3.60;;;2.80;;
10246;SDS011;5168;47.854;7.944;2024-02-21T07:08:37;3.77;;;2.97;;
10246;SDS011;5168;47.854;7.944;2024-02-21T07:11:04;3.23;;;2.60;;
10246;SDS011;5168;47.854;7.944;2024-02-21T07:13:30;3.00;;;2.70;;
10246;SDS011;5168;47.854;7.944;2024-02-21T07:15:55;6.60;;;3.03;;
10246;SDS011;5168;47.854;7.944;2024-02-21T07:18:21;3.20;;;2.70;;
10246;SDS011;5168;47.854;7.944;2024-02-21T07:20:46;2.60;;;2.40;;
10246;SDS011;5168;47.854;7.944;2024-02-21T07:23:12;4.60;;;2.63;;
10246;SDS011;5168;47.854;7.944;2024-02-21T07:25:38;3.10;;;2.30;;
10246;SDS011;5168;47.854;7.944;2024-02-21T07:28:04;3.43;;;2.70;;
10246;SDS011;5168;47.854;7.944;2024-02-21T07:30:30;2.67;;;2.30;;
10246;SDS011;5168;47.854;7.944;2024-02-21T07:32:56;2.40;;;2.20;;
10246;SDS011;5168;47.854;7.944;2024-02-21T07:35:21;2.33;;;2.13;;
10246;SDS011;5168;47.854;7.944;2024-02-21T07:37:47;2.50;;;2.30;;
10246;SDS011;5168;47.854;7.944;2024-02-21T07:40:13;2.73;;;2.10;;
10246;SDS011;5168;47.854;7.944;2024-02-21T07:42:40;2.13;;;2.03;;
10246;SDS011;5168;47.854;7.944;2024-02-21T07:45:06;3.30;;;2.20;;
10246;SDS011;5168;47.854;7.944;2024-02-21T07:47:32;3.03;;;1.97;;
10246;SDS011;5168;47.854;7.944;2024-02-21T07:49:58;2.53;;;2.33;;
10246;SDS011;5168;47.854;7.944;2024-02-21T07:52:23;2.80;;;2.10;;
10246;SDS011;5168;47.854;7.944;2024-02-21T07:54:50;2.40;;;2.20;;
10246;SDS011;5168;47.854;7.944;2024-02-21T07:57:15;2.60;;;2.17;;
10246;SDS011;5168;47.854;7.944;2024-02-21T07:59:41;2.40;;;2.20;;
10246;SDS011;5168;47.854;7.944;2024-02-21T08:02:07;2.90;;;2.30;;
10246;SDS011;5168;47.854;7.944;2024-02-21T08:04:33;2.77;;;2.17;;
10246;SDS011;5168;47.854;7.944;2024-02-21T08:06:58;2.37;;;2.20;;
10246;SDS011;5168;47.854;7.944;2024-02-21T08:09:27;3.03;;;2.13;;
10246;SDS011;5168;47.854;7.944;2024-02-21T08:11:53;2.07;;;1.87;;
10246;SDS011;5168;47.854;7.944;2024-02-21T08:14:19;1.90;;;1.80;;
10246;SDS011;5168;47.854;7.944;2024-02-21T08:16:45;2.20;;;2.00;;
10246;SDS011;5168;47.854;7.944;2024-02-21T08:19:11;2.30;;;2.10;;
10246;SDS011;5168;47.854;7.944;2024-02-21T08:21:36;3.10;;;2.30;;
10246;SDS011;5168;47.854;7.944;2024-02-21T08:24:02;2.50;;;2.20;;
10246;SDS011;5168;47.854;7.944;2024-02-21T08:26:28;2.50;;;2.17;;
10246;SDS011;5168;47.854;7.944;2024-02-21T08:28:56;3.03;;;2.30;;
10246;SDS011;5168;47.854;7.944;2024-02-21T08:31:24;2.10;;;1.90;;
10246;SDS011;5168;47.854;7.944;2024-02-21T08:33:56;2.30;;;2.10;;
10246;SDS011;5168;47.854;7.944;2024-02-21T08:36:28;2.20;;;2.00;;
10246;SDS011;5168;47.854;7.944;2024-02-21T08:38:57;2.33;;;2.00;;
10246;SDS011;5168;47.854;7.944;2024-02-21T08:41:23;2.03;;;1.87;;
10246;SDS011;5168;47.854;7.944;2024-02-21T08:43:53;2.17;;;2.00;;
10246;SDS011;5168;47.854;7.944;2024-02-21T08:46:25;2.23;;;2.03;;
10246;SDS011;5168;47.854;7.944;2024-02-21T08:48:51;2.93;;;2.63;;
10246;SDS011;5168;47.854;7.944;2024-02-21T08:51:17;2.40;;;2.20;;
10246;SDS011;5168;47.854;7.944;2024-02-21T08:53:43;2.30;;;2.13;;
10246;SDS011;5168;47.854;7.944;2024-02-21T08:56:09;2.20;;;1.90;;
10246;SDS011;5168;47.854;7.944;2024-02-21T08:58:36;1.93;;;1.83;;
10246;SDS011;5168;47.854;7.944;2024-02-21T09:01:02;2.10;;;1.90;;
10246;SDS011;5168;47.854;7.944;2024-02-21T09:03:30;2.13;;;1.70;;
10246;SDS011;5168;47.854;7.944;2024-02-21T09:05:56;2.33;;;1.63;;
10246;SDS011;5168;47.854;7.944;2024-02-21T09:08:23;1.70;;;1.60;;
10246;SDS011;5168;47.854;7.944;2024-02-21T09:10:50;2.00;;;1.90;;
10246;SDS011;5168;47.854;7.944;2024-02-21T09:13:16;1.90;;;1.73;;
10246;SDS011;5168;47.854;7.944;2024-02-21T09:15:42;1.90;;;1.60;;
10246;SDS011;5168;47.854;7.944;2024-02-21T09:18:07;1.70;;;1.60;;
10246;SDS011;5168;47.854;7.944;2024-02-21T09:20:33;2.40;;;1.77;;
10246;SDS011;5168;47.854;7.944;2024-02-21T09:22:59;2.50;;;1.80;;
10246;SDS011;5168;47.854;7.944;2024-02-21T09:25:25;1.73;;;1.63;;
10246;SDS011;5168;47.854;7.944;2024-02-21T09:27:53;2.37;;;2.17;;
10246;SDS011;5168;47.854;7.944;2024-02-21T09:30:19;1.50;;;1.40;;
10246;SDS011;5168;47.854;7.944;2024-02-21T09:32:45;1.80;;;1.70;;
10246;SDS011;5168;47.854;7.944;2024-02-21T09:35:10;1.80;;;1.57;;
10246;SDS011;5168;47.854;7.944;2024-02-21T09:37:37;1.70;;;1.60;;
10246;SDS011;5168;47.854;7.944;2024-02-21T09:40:03;1.57;;;1.47;;
10246;SDS011;5168;47.854;7.944;2024-02-21T09:42:39;1.73;;;1.53;;
10246;SDS011;5168;47.854;7.944;2024-02-21T09:45:19;1.53;;;1.43;;
10246;SDS011;5168;47.854;7.944;2024-02-21T09:50:40;1.70;;;1.60;;
10246;SDS011;5168;47.854;7.944;2024-02-21T09:53:09;1.80;;;1.70;;
10246;SDS011;5168;47.854;7.944;2024-02-21T09:55:37;1.67;;;1.57;;
10246;SDS011;5168;47.854;7.944;2024-02-21T09:58:05;1.67;;;1.57;;
10246;SDS011;5168;47.854;7.944;2024-02-21T10:00:33;1.60;;;1.50;;
10246;SDS011;5168;47.854;7.944;2024-02-21T10:02:59;1.60;;;1.50;;
10246;SDS011;5168;47.854;7.944;2024-02-21T10:05:25;1.70;;;1.60;;
10246;SDS011;5168;47.854;7.944;2024-02-21T10:07:52;3.00;;;1.80;;
10246;SDS011;5168;47.854;7.944;2024-02-21T10:10:19;2.10;;;2.00;;
10246;SDS011;5168;47.854;7.944;2024-02-21T10:12:49;2.37;;;1.80;;
10246;SDS011;5168;47.854;7.944;2024-02-21T10:15:19;2.37;;;1.90;;
10246;SDS011;5168;47.854;7.944;2024-02-21T10:17:49;1.80;;;1.70;;
10246;SDS011;5168;47.854;7.944;2024-02-21T10:20:15;2.50;;;1.70;;
10246;SDS011;5168;47.854;7.944;2024-02-21T10:22:41;1.80;;;1.70;;
10246;SDS011;5168;47.854;7.944;2024-02-21T10:25:10;1.73;;;1.63;;
10246;SDS011;5168;47.854;7.944;2024-02-21T10:27:37;1.83;;;1.73;;
10246;SDS011;5168;47.854;7.944;2024-02-21T10:30:13;1.70;;;1.60;;
10246;SDS011;5168;47.854;7.944;2024-02-21T10:32:55;2.57;;;2.13;;
10246;SDS011;5168;47.854;7.944;2024-02-21T10:35:31;1.93;;;1.83;;
10246;SDS011;5168;47.854;7.944;2024-02-21T10:37:58;2.00;;;1.80;;
10246;SDS011;5168;47.854;7.944;2024-02-21T10:40:27;1.90;;;1.80;;
10246;SDS011;5168;47.854;7.944;2024-02-21T10:42:57;3.33;;;1.93;;
10246;SDS011;5168;47.854;7.944;2024-02-21T10:45:30;2.10;;;1.73;;
10246;SDS011;5168;47.854;7.944;2024-02-21T10:48:01;1.77;;;1.67;;
10246;SDS011;5168;47.854;7.944;2024-02-21T10:50:33;2.40;;;1.70;;
10246;SDS011;5168;47.854;7.944;2024-02-21T10:53:44;2.20;;;1.80;;
10246;SDS011;5168;47.854;7.944;2024-02-21T10:56:28;1.73;;;1.63;;
10246;SDS011;5168;47.854;7.944;2024-02-21T10:59:06;1.60;;;1.50;;
10246;SDS011;5168;47.854;7.944;2024-02-21T11:01:32;1.90;;;1.70;;
10246;SDS011;5168;47.854;7.944;2024-02-21T11:04:04;1.67;;;1.57;;
10246;SDS011;5168;47.854;7.944;2024-02-21T11:06:31;3.40;;;1.70;;
10246;SDS011;5168;47.854;7.944;2024-02-21T11:09:06;1.60;;;1.50;;
10246;SDS011;5168;47.854;7.944;2024-02-21T11:11:35;2.53;;;1.70;;
10246;SDS011;5168;47.854;7.944;2024-02-21T11:14:21;1.80;;;1.53;;
10246;SDS011;5168;47.854;7.944;2024-02-21T11:16:47;2.90;;;1.67;;
10246;SDS011;5168;47.854;7.944;2024-02-21T11:19:19;2.37;;;1.93;;
10246;SDS011;5168;47.854;7.944;2024-02-21T11:21:46;2.60;;;1.50;;
10246;SDS011;5168;47.854;7.944;2024-02-21T11:24:13;1.83;;;1.70;;
10246;SDS011;5168;47.854;7.944;2024-02-21T11:26:39;1.53;;;1.43;;
10246;SDS011;5168;47.854;7.944;2024-02-21T11:29:07;1.60;;;1.50;;
10246;SDS011;5168;47.854;7.944;2024-02-21T11:31:38;2.40;;;1.70;;
10246;SDS011;5168;47.854;7.944;2024-02-21T11:34:10;1.97;;;1.47;;
10246;SDS011;5168;47.854;7.944;2024-02-21T11:36:52;1.67;;;1.57;;
10246;SDS011;5168;47.854;7.944;2024-02-21T11:39:25;1.83;;;1.60;;
10246;SDS011;5168;47.854;7.944;2024-02-21T11:42:03;2.93;;;1.77;;
10246;SDS011;5168;47.854;7.944;2024-02-21T11:44:31;3.53;;;1.77;;
10246;SDS011;5168;47.854;7.944;2024-02-21T11:46:57;2.70;;;1.80;;
10246;SDS011;5168;47.854;7.944;2024-02-21T11:49:29;1.60;;;1.50;;
10246;SDS011;5168;47.854;7.944;2024-02-21T11:52:01;2.00;;;1.67;;
10246;SDS011;5168;47.854;7.944;2024-02-21T11:54:31;1.80;;;1.70;;
10246;SDS011;5168;47.854;7.944;2024-02-21T11:56:56;1.80;;;1.70;;
10246;SDS011;5168;47.854;7.944;2024-02-21T11:59:22;2.90;;;1.83;;
10246;SDS011;5168;47.854;7.944;2024-02-21T12:01:48;1.90;;;1.50;;
10246;SDS011;5168;47.854;7.944;2024-02-21T12:04:15;1.80;;;1.50;;
10246;SDS011;5168;47.854;7.944;2024-02-21T12:06:42;2.80;;;1.80;;
10246;SDS011;5168;47.854;7.944;2024-02-21T12:09:09;1.80;;;1.70;;
10246;SDS011;5168;47.854;7.944;2024-02-21T12:11:38;1.87;;;1.60;;
10246;SDS011;5168;47.854;7.944;2024-02-21T12:14:04;1.90;;;1.77;;
10246;SDS011;5168;47.854;7.944;2024-02-21T12:16:31;1.67;;;1.57;;
10246;SDS011;5168;47.854;7.944;2024-02-21T12:18:57;1.80;;;1.70;;
10246;SDS011;5168;47.854;7.944;2024-02-21T12:21:29;1.90;;;1.70;;
10246;SDS011;5168;47.854;7.944;2024-02-21T12:23:57;1.80;;;1.63;;
10246;SDS011;5168;47.854;7.944;2024-02-21T12:26:35;2.53;;;1.67;;
10246;SDS011;5168;47.854;7.944;2024-02-21T12:29:02;2.63;;;1.60;;
10246;SDS011;5168;47.854;7.944;2024-02-21T12:31:27;1.70;;;1.60;;
10246;SDS011;5168;47.854;7.944;2024-02-21T12:33:53;1.73;;;1.60;;
10246;SDS011;5168;47.854;7.944;2024-02-21T12:36:18;2.23;;;1.60;;
10246;SDS011;5168;47.854;7.944;2024-02-21T12:38:44;1.90;;;1.60;;
10246;SDS011;5168;47.854;7.944;2024-02-21T12:41:11;1.97;;;1.77;;
10246;SDS011;5168;47.854;7.944;2024-02-21T12:43:37;1.87;;;1.63;;
10246;SDS011;5168;47.854;7.944;2024-02-21T12:46:03;1.70;;;1.60;;
10246;SDS011;5168;47.854;7.944;2024-02-21T12:48:29;2.63;;;1.60;;
10246;SDS011;5168;47.854;7.944;2024-02-21T12:50:55;1.70;;;1.60;;
10246;SDS011;5168;47.854;7.944;2024-02-21T12:53:20;2.13;;;1.70;;
10246;SDS011;5168;47.854;7.944;2024-02-21T12:55:48;1.50;;;1.40;;
10246;SDS011;5168;47.854;7.944;2024-02-21T12:58:13;1.97;;;1.60;;
10246;SDS011;5168;47.854;7.944;2024-02-21T13:00:39;1.90;;;1.80;;
10246;SDS011;5168;47.854;7.944;2024-02-21T13:03:05;2.33;;;1.70;;
10246;SDS011;5168;47.854;7.944;2024-02-21T13:05:30;2.17;;;1.80;;
10246;SDS011;5168;47.854;7.944;2024-02-21T13:07:57;1.50;;;1.40;;
10246;SDS011;5168;47.854;7.944;2024-02-21T13:10:25;2.00;;;1.80;;
10246;SDS011;5168;47.854;7.944;2024-02-21T13:12:51;1.60;;;1.50;;
10246;SDS011;5168;47.854;7.944;2024-02-21T13:15:17;1.67;;;1.57;;
10246;SDS011;5168;47.854;7.944;2024-02-21T13:17:43;2.13;;;1.50;;
10246;SDS011;5168;47.854;7.944;2024-02-21T13:20:10;1.80;;;1.70;;
10246;SDS011;5168;47.854;7.944;2024-02-21T13:22:36;1.90;;;1.80;;
10246;SDS011;5168;47.854;7.944;2024-02-21T13:25:01;1.70;;;1.60;;
10246;SDS011;5168;47.854;7.944;2024-02-21T13:27:27;1.40;;;1.30;;
10246;SDS011;5168;47.854;7.944;2024-02-21T13:29:53;1.60;;;1.50;;
10246;SDS011;5168;47.854;7.944;2024-02-21T13:32:19;1.70;;;1.60;;
10246;SDS011;5168;47.854;7.944;2024-02-21T13:34:46;1.53;;;1.40;;
10246;SDS011;5168;47.854;7.944;2024-02-21T13:37:11;2.07;;;1.50;;
10246;SDS011;5168;47.854;7.944;2024-02-21T13:39:38;1.90;;;1.47;;
10246;SDS011;5168;47.854;7.944;2024-02-21T13:42:04;1.70;;;1.60;;
10246;SDS011;5168;47.854;7.944;2024-02-21T13:44:31;1.80;;;1.70;;
10246;SDS011;5168;47.854;7.944;2024-02-21T13:46:57;1.93;;;1.73;;
10246;SDS011;5168;47.854;7.944;2024-02-21T13:49:22;1.80;;;1.70;;
10246;SDS011;5168;47.854;7.944;2024-02-21T13:51:48;2.23;;;1.50;;
10246;SDS011;5168;47.854;7.944;2024-02-21T13:54:13;1.70;;;1.60;;
10246;SDS011;5168;47.854;7.944;2024-02-21T13:56:42;1.87;;;1.70;;
10246;SDS011;5168;47.854;7.944;2024-02-21T13:59:08;1.73;;;1.60;;
10246;SDS011;5168;47.854;7.944;2024-02-21T14:01:33;2.33;;;1.60;;
10246;SDS011;5168;47.854;7.944;2024-02-21T14:04:00;1.63;;;1.53;;
10246;SDS011;5168;47.854;7.944;2024-02-21T14:06:26;2.10;;;1.47;;
10246;SDS011;5168;47.854;7.944;2024-02-21T14:08:52;1.70;;;1.60;;
10246;SDS011;5168;47.854;7.944;2024-02-21T14:11:17;2.70;;;1.80;;
10246;SDS011;5168;47.854;7.944;2024-02-21T14:13:43;1.80;;;1.70;;
10246;SDS011;5168;47.854;7.944;2024-02-21T14:16:10;1.60;;;1.50;;
10246;SDS011;5168;47.854;7.944;2024-02-21T14:18:38;1.90;;;1.60;;
10246;SDS011;5168;47.854;7.944;2024-02-21T14:21:05;1.70;;;1.50;;
10246;SDS011;5168;47.854;7.944;2024-02-21T14:23:31;1.80;;;1.70;;
10246;SDS011;5168;47.854;7.944;2024-02-21T14:25:58;1.70;;;1.60;;
10246;SDS011;5168;47.854;7.944;2024-02-21T14:28:24;1.93;;;1.60;;
10246;SDS011;5168;47.854;7.944;2024-02-21T14:30:50;2.27;;;1.40;;
10246;SDS011;5168;47.854;7.944;2024-02-21T14:33:18;2.23;;;2.03;;
10246;SDS011;5168;47.854;7.944;2024-02-21T14:35:44;2.67;;;1.70;;
10246;SDS011;5168;47.854;7.944;2024-02-21T14:38:10;1.73;;;1.63;;
10246;SDS011;5168;47.854;7.944;2024-02-21T14:40:35;2.70;;;1.77;;
10246;SDS011;5168;47.854;7.944;2024-02-21T14:43:01;2.10;;;1.90;;
10246;SDS011;5168;47.854;7.944;2024-02-21T14:45:26;1.97;;;1.50;;
10246;SDS011;5168;47.854;7.944;2024-02-21T14:47:52;2.40;;;1.73;;
10246;SDS011;5168;47.854;7.944;2024-02-21T14:50:20;1.80;;;1.70;;
10246;SDS011;5168;47.854;7.944;2024-02-21T14:52:45;1.60;;;1.50;;
10246;SDS011;5168;47.854;7.944;2024-02-21T14:55:12;1.70;;;1.60;;
10246;SDS011;5168;47.854;7.944;2024-02-21T14:57:39;1.77;;;1.67;;
10246;SDS011;5168;47.854;7.944;2024-02-21T15:00:06;1.93;;;1.67;;
10246;SDS011;5168;47.854;7.944;2024-02-21T15:02:33;2.43;;;2.00;;
10246;SDS011;5168;47.854;7.944;2024-02-21T15:05:00;1.93;;;1.70;;